sensor_id;sensor_type;location;lat;lon;timestamp;pressure;altitude;pressure_sealevel;temperature;humidity
18987;BME280;9627;59.236;18.142;2023-03-21T00:02:05;100624.94;;;-0.41;100.00
18987;BME280;9627;59.236;18.142;2023-03-21T00:04:32;100620.31;;;-0.37;100.00
18987;BME280;9627;59.236;18.142;2023-03-21T00:06:59;100627.09;;;-0.35;100.00
18987;BME280;9627;59.236;18.142;2023-03-21T00:09:27;100627.56;;;-0.30;100.00
18987;BME280;9627;59.236;18.142;2023-03-21T00:11:56;100627.56;;;-0.30;100.00
18987;BME280;9627;59.236;18.142;2023-03-21T00:14:26;100616.28;;;-0.30;100.00
18987;BME280;9627;59.236;18.142;2023-03-21T00:16:55;100617.13;;;-0.30;100.00
18987;BME280;9627;59.236;18.142;2023-03-21T00:19:22;100620.56;;;-0.18;100.00
18987;BME280;9627;59.236;18.142;2023-03-21T00:21:50;100616.31;;;-0.19;100.00
18987;BME280;9627;59.236;18.142;2023-03-21T00:24:19;100620.19;;;-0.25;100.00
18987;BME280;9627;59.236;18.142;2023-03-21T00:26:47;100618.09;;;-0.20;100.00
18987;BME280;9627;59.236;18.142;2023-03-21T00:29:15;100614.63;;;-0.20;100.00
18987;BME280;9627;59.236;18.142;2023-03-21T00:31:43;100613.09;;;-0.23;100.00
18987;BME280;9627;59.236;18.142;2023-03-21T00:34:09;100611.44;;;-0.24;100.00
18987;BME280;9627;59.236;18.142;2023-03-21T00:36:36;100612.50;;;-0.15;100.00
18987;BME280;9627;59.236;18.142;2023-03-21T00:39:04;100607.91;;;-0.12;100.00
18987;BME280;9627;59.236;18.142;2023-03-21T00:41:31;100619.72;;;-0.19;100.00
18987;BME280;9627;59.236;18.142;2023-03-21T00:43:58;100610.50;;;-0.12;100.00
18987;BME280;9627;59.236;18.142;2023-03-21T00:46:27;100611.56;;;-0.14;100.00
18987;BME280;9627;59.236;18.142;2023-03-21T00:48:54;100611.69;;;-0.16;100.00
18987;BME280;9627;59.236;18.142;2023-03-21T00:51:22;100611.56;;;-0.14;100.00
18987;BME280;9627;59.236;18.142;2023-03-21T00:53:51;100600.53;;;-0.18;100.00
18987;BME280;9627;59.236;18.142;2023-03-21T00:56:18;100598.06;;;-0.19;100.00
18987;BME280;9627;59.236;18.142;2023-03-21T00:58:45;100605.03;;;-0.09;100.00
18987;BME280;9627;59.236;18.142;2023-03-21T01:01:12;100600.88;;;-0.11;100.00
18987;BME280;9627;59.236;18.142;2023-03-21T01:03:41;100604.31;;;-0.11;100.00
18987;BME280;9627;59.236;18.142;2023-03-21T01:06:12;100610.13;;;-0.07;100.00
18987;BME280;9627;59.236;18.142;2023-03-21T01:08:44;100607.91;;;-0.12;100.00
18987;BME280;9627;59.236;18.142;2023-03-21T01:11:11;100614.03;;;-0.13;100.00
18987;BME280;9627;59.236;18.142;2023-03-21T01:13:39;100605.50;;;-0.15;100.00
18987;BME280;9627;59.236;18.142;2023-03-21T01:16:06;100610.13;;;-0.07;100.00
18987;BME280;9627;59.236;18.142;2023-03-21T01:18:34;100611.69;;;-0.05;100.00
18987;BME280;9627;59.236;18.142;2023-03-21T01:21:04;100620.09;;;-0.01;100.00
18987;BME280;9627;59.236;18.142;2023-03-21T01:23:32;100624.25;;;0.02;100.00
18987;BME280;9627;59.236;18.142;2023-03-21T01:25:59;100617.34;;;0.00;100.00
18987;BME280;9627;59.236;18.142;2023-03-21T01:28:26;100623.03;;;-0.06;100.00
18987;BME280;9627;59.236;18.142;2023-03-21T01:30:54;100629.09;;;-0.05;100.00
18987;BME280;9627;59.236;18.142;2023-03-21T01:33:21;100631.59;;;-0.04;100.00
18987;BME280;9627;59.236;18.142;2023-03-21T01:35:48;100643.47;;;-0.11;100.00
18987;BME280;9627;59.236;18.142;2023-03-21T01:38:17;100639.09;;;-0.10;100.00
18987;BME280;9627;59.236;18.142;2023-03-21T01:40:45;100643.59;;;-0.12;100.00
18987;BME280;9627;59.236;18.142;2023-03-21T01:43:19;100640.00;;;-0.11;100.00
18987;BME280;9627;59.236;18.142;2023-03-21T01:46:07;100638.72;;;-0.06;100.00
18987;BME280;9627;59.236;18.142;2023-03-21T01:48:36;100639.09;;;-0.10;100.00
18987;BME280;9627;59.236;18.142;2023-03-21T01:51:05;100639.91;;;-0.10;100.00
18987;BME280;9627;59.236;18.142;2023-03-21T01:53:35;100643.00;;;-0.05;100.00
18987;BME280;9627;59.236;18.142;2023-03-21T01:56:05;100638.25;;;-0.11;100.00
18987;BME280;9627;59.236;18.142;2023-03-21T01:58:34;100640.38;;;-0.05;100.00
18987;BME280;9627;59.236;18.142;2023-03-21T02:01:01;100651.66;;;-0.04;100.00
18987;BME280;9627;59.236;18.142;2023-03-21T02:03:28;100645.81;;;-0.08;100.00
18987;BME280;9627;59.236;18.142;2023-03-21T02:06:04;100655.06;;;-0.15;100.00
18987;BME280;9627;59.236;18.142;2023-03-21T02:08:32;100646.66;;;-0.18;100.00
18987;BME280;9627;59.236;18.142;2023-03-21T02:11:01;100653.66;;;-0.19;100.00
18987;BME280;9627;59.236;18.142;2023-03-21T02:13:28;100654.38;;;-0.17;100.00
18987;BME280;9627;59.236;18.142;2023-03-21T02:15:57;100652.25;;;-0.12;100.00
18987;BME280;9627;59.236;18.142;2023-03-21T02:18:26;100649.16;;;-0.06;100.00
18987;BME280;9627;59.236;18.142;2023-03-21T02:23:49;100645.59;;;-0.05;100.00
18987;BME280;9627;59.236;18.142;2023-03-21T02:29:06;100660.28;;;-0.04;100.00
18987;BME280;9627;59.236;18.142;2023-03-21T02:31:39;100657.47;;;-0.01;100.00
18987;BME280;9627;59.236;18.142;2023-03-21T02:37:05;100653.44;;;-0.05;100.00
18987;BME280;9627;59.236;18.142;2023-03-21T02:39:44;100661.84;;;-0.12;100.00
18987;BME280;9627;59.236;18.142;2023-03-21T02:42:16;100656.03;;;-0.05;100.00
18987;BME280;9627;59.236;18.142;2023-03-21T02:44:45;100654.03;;;-0.12;100.00
18987;BME280;9627;59.236;18.142;2023-03-21T02:47:17;100654.94;;;-0.13;100.00
18987;BME280;9627;59.236;18.142;2023-03-21T02:49:46;100662.31;;;-0.18;100.00
18987;BME280;9627;59.236;18.142;2023-03-21T02:52:19;100662.06;;;-0.15;100.00
18987;BME280;9627;59.236;18.142;2023-03-21T02:54:48;100653.44;;;-0.16;100.00
18987;BME280;9627;59.236;18.142;2023-03-21T02:57:16;100666.00;;;-0.10;100.00
18987;BME280;9627;59.236;18.142;2023-03-21T02:59:44;100661.00;;;-0.13;100.00
18987;BME280;9627;59.236;18.142;2023-03-21T03:02:12;100654.16;;;-0.14;100.00
18987;BME280;9627;59.236;18.142;2023-03-21T03:04:41;100658.88;;;-0.19;100.00
18987;BME280;9627;59.236;18.142;2023-03-21T03:07:10;100667.28;;;-0.15;100.00
18987;BME280;9627;59.236;18.142;2023-03-21T03:09:42;100670.28;;;-0.09;100.00
18987;BME280;9627;59.236;18.142;2023-03-21T03:12:17;100663.75;;;-0.14;100.00
18987;BME280;9627;59.236;18.142;2023-03-21T03:14:49;100659.97;;;-0.10;100.00
18987;BME280;9627;59.236;18.142;2023-03-21T03:17:21;100664.81;;;-0.06;100.00
18987;BME280;9627;59.236;18.142;2023-03-21T03:19:56;100665.88;;;-0.08;100.00
18987;BME280;9627;59.236;18.142;2023-03-21T03:22:27;100668.84;;;-0.13;100.00
18987;BME280;9627;59.236;18.142;2023-03-21T03:25:02;100672.41;;;-0.03;100.00
18987;BME280;9627;59.236;18.142;2023-03-21T03:27:32;100669.81;;;-0.03;100.00
18987;BME280;9627;59.236;18.142;2023-03-21T03:30:03;100673.72;;;-0.08;100.00
18987;BME280;9627;59.236;18.142;2023-03-21T03:32:33;100669.09;;;-0.05;100.00
18987;BME280;9627;59.236;18.142;2023-03-21T03:35:02;100671.09;;;-0.08;100.00
18987;BME280;9627;59.236;18.142;2023-03-21T03:37:31;100665.50;;;-0.04;100.00
18987;BME280;9627;59.236;18.142;2023-03-21T03:40:00;100672.41;;;-0.03;100.00
18987;BME280;9627;59.236;18.142;2023-03-21T03:42:33;100670.41;;;0.01;100.00
18987;BME280;9627;59.236;18.142;2023-03-21T03:45:02;100681.53;;;0.03;100.00
18987;BME280;9627;59.236;18.142;2023-03-21T03:47:32;100682.72;;;-0.01;100.00
18987;BME280;9627;59.236;18.142;2023-03-21T03:50:04;100679.53;;;-0.05;100.00
18987;BME280;9627;59.236;18.142;2023-03-21T03:52:34;100684.75;;;-0.05;100.00
18987;BME280;9627;59.236;18.142;2023-03-21T03:55:03;100683.91;;;-0.05;100.00
18987;BME280;9627;59.236;18.142;2023-03-21T03:57:32;100686.19;;;-0.01;100.00
18987;BME280;9627;59.236;18.142;2023-03-21T04:00:00;100689.84;;;-0.14;100.00
18987;BME280;9627;59.236;18.142;2023-03-21T04:02:28;100691.97;;;-0.19;100.00
18987;BME280;9627;59.236;18.142;2023-03-21T04:04:56;100694.69;;;-0.21;100.00
18987;BME280;9627;59.236;18.142;2023-03-21T04:07:23;100691.13;;;-0.20;100.00
18987;BME280;9627;59.236;18.142;2023-03-21T04:09:50;100684.16;;;-0.19;100.00
18987;BME280;9627;59.236;18.142;2023-03-21T04:12:17;100683.06;;;-0.28;100.00
18987;BME280;9627;59.236;18.142;2023-03-21T04:14:46;100683.44;;;-0.21;100.00
18987;BME280;9627;59.236;18.142;2023-03-21T04:17:13;100687.34;;;-0.16;100.00
18987;BME280;9627;59.236;18.142;2023-03-21T04:19:41;100688.06;;;-0.14;100.00
18987;BME280;9627;59.236;18.142;2023-03-21T04:22:09;100685.56;;;-0.15;100.00
18987;BME280;9627;59.236;18.142;2023-03-21T04:24:36;100689.97;;;-0.16;100.00
18987;BME280;9627;59.236;18.142;2023-03-21T04:27:04;100682.72;;;-0.12;100.00
18987;BME280;9627;59.236;18.142;2023-03-21T04:29:31;100692.31;;;-0.13;100.00
18987;BME280;9627;59.236;18.142;2023-03-21T04:32:00;100686.88;;;-0.10;100.00
18987;BME280;9627;59.236;18.142;2023-03-21T04:34:27;100700.28;;;-0.03;100.00
18987;BME280;9627;59.236;18.142;2023-03-21T04:36:54;100684.75;;;-0.16;100.00
18987;BME280;9627;59.236;18.142;2023-03-21T04:39:22;100691.59;;;-0.26;100.00
18987;BME280;9627;59.236;18.142;2023-03-21T04:41:49;100701.56;;;-0.20;100.00
18987;BME280;9627;59.236;18.142;2023-03-21T04:44:16;100705.72;;;-0.17;100.00
18987;BME280;9627;59.236;18.142;2023-03-21T04:46:43;100710.56;;;-0.35;100.00
18987;BME280;9627;59.236;18.142;2023-03-21T04:49:11;100710.56;;;-0.24;100.00
18987;BME280;9627;59.236;18.142;2023-03-21T04:51:38;100713.06;;;-0.22;100.00
18987;BME280;9627;59.236;18.142;2023-03-21T04:54:06;100721.38;;;-0.17;100.00
18987;BME280;9627;59.236;18.142;2023-03-21T04:56:33;100722.44;;;-0.31;100.00
18987;BME280;9627;59.236;18.142;2023-03-21T04:59:01;100722.06;;;-0.26;100.00
18987;BME280;9627;59.236;18.142;2023-03-21T05:01:28;100734.06;;;-0.24;100.00
18987;BME280;9627;59.236;18.142;2023-03-21T05:03:56;100739.13;;;-0.33;100.00
18987;BME280;9627;59.236;18.142;2023-03-21T05:06:25;100725.75;;;-0.29;100.00
18987;BME280;9627;59.236;18.142;2023-03-21T05:08:53;100723.59;;;-0.35;100.00
18987;BME280;9627;59.236;18.142;2023-03-21T05:11:20;100728.56;;;-0.43;100.00
18987;BME280;9627;59.236;18.142;2023-03-21T05:13:47;100726.66;;;-0.41;100.00
18987;BME280;9627;59.236;18.142;2023-03-21T05:16:15;100729.97;;;-0.50;100.00
18987;BME280;9627;59.236;18.142;2023-03-21T05:18:42;100716.69;;;-0.36;100.00
18987;BME280;9627;59.236;18.142;2023-03-21T05:21:08;100726.50;;;-0.16;100.00
18987;BME280;9627;59.236;18.142;2023-03-21T05:23:37;100723.28;;;-0.19;100.00
18987;BME280;9627;59.236;18.142;2023-03-21T05:26:05;100725.66;;;-0.05;100.00
18987;BME280;9627;59.236;18.142;2023-03-21T05:28:32;100729.13;;;-0.05;100.00
18987;BME280;9627;59.236;18.142;2023-03-21T05:31:01;100734.34;;;-0.05;100.00
18987;BME280;9627;59.236;18.142;2023-03-21T05:33:28;100728.63;;;-0.10;100.00
18987;BME280;9627;59.236;18.142;2023-03-21T05:35:55;100733.88;;;0.02;100.00
18987;BME280;9627;59.236;18.142;2023-03-21T05:38:22;100726.25;;;-0.02;100.00
18987;BME280;9627;59.236;18.142;2023-03-21T05:40:52;100718.56;;;-0.03;100.00
18987;BME280;9627;59.236;18.142;2023-03-21T05:43:19;100722.97;;;0.08;100.00
18987;BME280;9627;59.236;18.142;2023-03-21T05:45:46;100717.63;;;0.20;100.00
18987;BME280;9627;59.236;18.142;2023-03-21T05:48:14;100717.97;;;0.16;100.00
18987;BME280;9627;59.236;18.142;2023-03-21T05:50:41;100717.28;;;0.25;100.00
18987;BME280;9627;59.236;18.142;2023-03-21T05:53:07;100711.81;;;0.28;100.00
18987;BME280;9627;59.236;18.142;2023-03-21T05:55:34;100710.28;;;0.36;100.00
18987;BME280;9627;59.236;18.142;2023-03-21T05:58:03;100707.53;;;0.38;100.00
18987;BME280;9627;59.236;18.142;2023-03-21T06:00:30;100720.94;;;0.33;100.00
18987;BME280;9627;59.236;18.142;2023-03-21T06:02:57;100714.66;;;0.47;100.00
18987;BME280;9627;59.236;18.142;2023-03-21T06:05:24;100731.75;;;0.51;100.00
18987;BME280;9627;59.236;18.142;2023-03-21T06:07:52;100723.44;;;0.57;100.00
18987;BME280;9627;59.236;18.142;2023-03-21T06:10:19;100726.03;;;0.57;100.00
18987;BME280;9627;59.236;18.142;2023-03-21T06:12:46;100726.41;;;0.52;100.00
18987;BME280;9627;59.236;18.142;2023-03-21T06:15:15;100734.59;;;0.37;100.00
18987;BME280;9627;59.236;18.142;2023-03-21T06:17:42;100736.13;;;0.39;100.00
18987;BME280;9627;59.236;18.142;2023-03-21T06:20:10;100742.28;;;0.38;100.00
18987;BME280;9627;59.236;18.142;2023-03-21T06:22:37;100742.41;;;0.37;100.00
18987;BME280;9627;59.236;18.142;2023-03-21T06:25:05;100739.81;;;0.48;100.00
18987;BME280;9627;59.236;18.142;2023-03-21T06:27:33;100735.50;;;0.69;100.00
18987;BME280;9627;59.236;18.142;2023-03-21T06:30:00;100742.09;;;1.06;100.00
18987;BME280;9627;59.236;18.142;2023-03-21T06:32:29;100739.72;;;1.14;100.00
18987;BME280;9627;59.236;18.142;2023-03-21T06:34:56;100730.03;;;0.83;100.00
18987;BME280;9627;59.236;18.142;2023-03-21T06:37:23;100735.19;;;1.16;100.00
18987;BME280;9627;59.236;18.142;2023-03-21T06:39:51;100736.78;;;1.28;100.00
18987;BME280;9627;59.236;18.142;2023-03-21T06:42:18;100739.34;;;1.39;100.00
18987;BME280;9627;59.236;18.142;2023-03-21T06:44:45;100730.72;;;1.59;100.00
18987;BME280;9627;59.236;18.142;2023-03-21T06:47:12;100733.19;;;1.61;100.00
18987;BME280;9627;59.236;18.142;2023-03-21T06:49:41;100734.09;;;1.71;100.00
18987;BME280;9627;59.236;18.142;2023-03-21T06:52:08;100735.69;;;1.62;100.00
18987;BME280;9627;59.236;18.142;2023-03-21T06:54:35;100731.19;;;1.33;100.00
18987;BME280;9627;59.236;18.142;2023-03-21T06:57:02;100735.53;;;1.12;100.00
18987;BME280;9627;59.236;18.142;2023-03-21T06:59:30;100742.75;;;1.51;100.00
18987;BME280;9627;59.236;18.142;2023-03-21T07:01:57;100735.19;;;1.68;100.00
18987;BME280;9627;59.236;18.142;2023-03-21T07:04:24;100737.84;;;1.57;100.00
18987;BME280;9627;59.236;18.142;2023-03-21T07:06:53;100736.34;;;1.96;100.00
18987;BME280;9627;59.236;18.142;2023-03-21T07:09:20;100745.91;;;1.65;100.00
18987;BME280;9627;59.236;18.142;2023-03-21T07:11:48;100741.16;;;2.01;100.00
18987;BME280;9627;59.236;18.142;2023-03-21T07:14:17;100751.28;;;2.35;100.00
18987;BME280;9627;59.236;18.142;2023-03-21T07:16:44;100741.28;;;2.20;100.00
18987;BME280;9627;59.236;18.142;2023-03-21T07:19:11;100747.91;;;2.24;100.00
18987;BME280;9627;59.236;18.142;2023-03-21T07:21:39;100754.97;;;2.53;100.00
18987;BME280;9627;59.236;18.142;2023-03-21T07:24:08;100752.59;;;2.50;100.00
18987;BME280;9627;59.236;18.142;2023-03-21T07:26:35;100752.28;;;2.74;100.00
18987;BME280;9627;59.236;18.142;2023-03-21T07:29:02;100752.31;;;2.83;100.00
18987;BME280;9627;59.236;18.142;2023-03-21T07:31:30;100741.91;;;2.63;100.00
18987;BME280;9627;59.236;18.142;2023-03-21T07:33:57;100751.56;;;2.72;100.00
18987;BME280;9627;59.236;18.142;2023-03-21T07:36:24;100752.38;;;2.63;100.00
18987;BME280;9627;59.236;18.142;2023-03-21T07:38:52;100751.91;;;2.98;100.00
18987;BME280;9627;59.236;18.142;2023-03-21T07:41:20;100758.63;;;2.81;100.00
18987;BME280;9627;59.236;18.142;2023-03-21T07:43:47;100756.50;;;2.65;100.00
18987;BME280;9627;59.236;18.142;2023-03-21T07:46:14;100757.22;;;3.45;100.00
18987;BME280;9627;59.236;18.142;2023-03-21T07:48:40;100763.31;;;2.77;100.00
18987;BME280;9627;59.236;18.142;2023-03-21T07:51:07;100764.47;;;3.04;100.00
18987;BME280;9627;59.236;18.142;2023-03-21T07:53:35;100760.66;;;3.55;100.00
18987;BME280;9627;59.236;18.142;2023-03-21T07:56:02;100772.16;;;3.64;100.00
18987;BME280;9627;59.236;18.142;2023-03-21T07:58:31;100769.22;;;3.19;100.00
18987;BME280;9627;59.236;18.142;2023-03-21T08:00:58;100769.38;;;3.46;100.00
18987;BME280;9627;59.236;18.142;2023-03-21T08:03:26;100767.91;;;2.95;100.00
18987;BME280;9627;59.236;18.142;2023-03-21T08:05:54;100768.41;;;3.38;100.00
18987;BME280;9627;59.236;18.142;2023-03-21T08:08:21;100766.91;;;3.45;100.00
18987;BME280;9627;59.236;18.142;2023-03-21T08:10:48;100773.94;;;3.63;100.00
18987;BME280;9627;59.236;18.142;2023-03-21T08:13:15;100765.59;;;4.06;100.00
18987;BME280;9627;59.236;18.142;2023-03-21T08:15:43;100767.84;;;3.72;100.00
18987;BME280;9627;59.236;18.142;2023-03-21T08:18:10;100765.50;;;3.31;100.00
18987;BME280;9627;59.236;18.142;2023-03-21T08:20:37;100772.97;;;3.64;100.00
18987;BME280;9627;59.236;18.142;2023-03-21T08:23:05;100774.56;;;4.13;100.00
18987;BME280;9627;59.236;18.142;2023-03-21T08:25:32;100772.81;;;3.95;100.00
18987;BME280;9627;59.236;18.142;2023-03-21T08:27:59;100776.38;;;4.03;100.00
18987;BME280;9627;59.236;18.142;2023-03-21T08:30:27;100776.91;;;4.16;100.00
18987;BME280;9627;59.236;18.142;2023-03-21T08:32:57;100785.97;;;3.47;100.00
18987;BME280;9627;59.236;18.142;2023-03-21T08:35:24;100780.56;;;3.58;100.00
18987;BME280;9627;59.236;18.142;2023-03-21T08:37:52;100774.97;;;4.18;100.00
18987;BME280;9627;59.236;18.142;2023-03-21T08:40:19;100774.31;;;4.07;100.00
18987;BME280;9627;59.236;18.142;2023-03-21T08:42:46;100767.13;;;4.55;100.00
18987;BME280;9627;59.236;18.142;2023-03-21T08:45:13;100767.66;;;4.58;100.00
18987;BME280;9627;59.236;18.142;2023-03-21T08:47:41;100773.81;;;4.40;100.00
18987;BME280;9627;59.236;18.142;2023-03-21T08:50:11;100772.47;;;4.63;100.00
18987;BME280;9627;59.236;18.142;2023-03-21T08:52:39;100771.78;;;5.15;100.00
18987;BME280;9627;59.236;18.142;2023-03-21T08:55:07;100769.88;;;5.52;100.00
18987;BME280;9627;59.236;18.142;2023-03-21T08:57:34;100776.38;;;6.01;100.00
18987;BME280;9627;59.236;18.142;2023-03-21T09:00:02;100769.47;;;6.85;100.00
18987;BME280;9627;59.236;18.142;2023-03-21T09:02:33;100769.69;;;7.08;100.00
18987;BME280;9627;59.236;18.142;2023-03-21T09:05:00;100767.50;;;7.53;100.00
18987;BME280;9627;59.236;18.142;2023-03-21T09:07:32;100763.31;;;8.47;100.00
18987;BME280;9627;59.236;18.142;2023-03-21T09:10:00;100768.25;;;8.58;100.00
18987;BME280;9627;59.236;18.142;2023-03-21T09:12:28;100762.72;;;9.14;100.00
18987;BME280;9627;59.236;18.142;2023-03-21T09:14:55;100765.00;;;10.31;100.00
18987;BME280;9627;59.236;18.142;2023-03-21T09:17:22;100760.38;;;11.48;100.00
18987;BME280;9627;59.236;18.142;2023-03-21T09:19:49;100763.91;;;11.55;100.00
18987;BME280;9627;59.236;18.142;2023-03-21T09:22:17;100775.91;;;9.53;100.00
18987;BME280;9627;59.236;18.142;2023-03-21T09:24:47;100774.44;;;8.89;100.00
18987;BME280;9627;59.236;18.142;2023-03-21T09:27:14;100769.84;;;9.14;100.00
18987;BME280;9627;59.236;18.142;2023-03-21T09:29:45;100769.31;;;9.49;100.00
18987;BME280;9627;59.236;18.142;2023-03-21T09:32:12;100772.81;;;10.47;100.00
18987;BME280;9627;59.236;18.142;2023-03-21T09:34:39;100763.09;;;10.83;100.00
18987;BME280;9627;59.236;18.142;2023-03-21T09:37:06;100768.72;;;11.45;100.00
18987;BME280;9627;59.236;18.142;2023-03-21T09:39:38;100773.28;;;11.51;100.00
18987;BME280;9627;59.236;18.142;2023-03-21T09:45:03;100776.78;;;11.51;100.00
18987;BME280;9627;59.236;18.142;2023-03-21T09:47:35;100763.97;;;11.76;100.00
18987;BME280;9627;59.236;18.142;2023-03-21T09:50:10;100771.91;;;12.18;100.00
18987;BME280;9627;59.236;18.142;2023-03-21T09:52:41;100769.09;;;11.42;100.00
18987;BME280;9627;59.236;18.142;2023-03-21T09:55:15;100769.31;;;11.26;100.00
18987;BME280;9627;59.236;18.142;2023-03-21T09:57:44;100762.41;;;12.37;100.00
18987;BME280;9627;59.236;18.142;2023-03-21T10:00:16;100769.75;;;11.44;100.00
18987;BME280;9627;59.236;18.142;2023-03-21T10:02:47;100762.19;;;12.38;100.00
18987;BME280;9627;59.236;18.142;2023-03-21T10:05:18;100765.06;;;11.88;100.00
18987;BME280;9627;59.236;18.142;2023-03-21T10:07:50;100775.81;;;10.87;100.00
18987;BME280;9627;59.236;18.142;2023-03-21T10:10:18;100771.44;;;10.65;100.00
18987;BME280;9627;59.236;18.142;2023-03-21T10:12:46;100775.59;;;10.16;100.00
18987;BME280;9627;59.236;18.142;2023-03-21T10:15:18;100774.47;;;9.88;100.00
18987;BME280;9627;59.236;18.142;2023-03-21T10:17:47;100779.47;;;9.83;100.00
18987;BME280;9627;59.236;18.142;2023-03-21T10:20:16;100778.28;;;10.45;100.00
18987;BME280;9627;59.236;18.142;2023-03-21T10:22:45;100769.25;;;10.54;100.00
18987;BME280;9627;59.236;18.142;2023-03-21T10:25:14;100774.69;;;10.96;100.00
18987;BME280;9627;59.236;18.142;2023-03-21T10:27:42;100776.31;;;10.24;100.00
18987;BME280;9627;59.236;18.142;2023-03-21T10:30:10;100772.31;;;10.28;100.00
18987;BME280;9627;59.236;18.142;2023-03-21T10:32:43;100767.22;;;9.59;100.00
18987;BME280;9627;59.236;18.142;2023-03-21T10:35:11;100774.78;;;9.93;100.00
18987;BME280;9627;59.236;18.142;2023-03-21T10:37:38;100782.03;;;10.51;100.00
18987;BME280;9627;59.236;18.142;2023-03-21T10:40:06;100784.25;;;9.87;100.00
18987;BME280;9627;59.236;18.142;2023-03-21T10:42:34;100789.72;;;10.60;100.00
18987;BME280;9627;59.236;18.142;2023-03-21T10:45:01;100794.38;;;10.58;100.00
18987;BME280;9627;59.236;18.142;2023-03-21T10:47:29;100790.88;;;11.52;100.00
18987;BME280;9627;59.236;18.142;2023-03-21T10:50:03;100794.97;;;11.90;100.00
18987;BME280;9627;59.236;18.142;2023-03-21T10:52:30;100797.53;;;11.62;100.00
18987;BME280;9627;59.236;18.142;2023-03-21T10:55:04;100789.81;;;10.81;100.00
18987;BME280;9627;59.236;18.142;2023-03-21T10:57:32;100796.88;;;10.74;100.00
18987;BME280;9627;59.236;18.142;2023-03-21T11:00:02;100789.75;;;11.25;100.00
18987;BME280;9627;59.236;18.142;2023-03-21T11:02:40;100787.50;;;12.00;100.00
18987;BME280;9627;59.236;18.142;2023-03-21T11:05:15;100790.97;;;11.08;100.00
18987;BME280;9627;59.236;18.142;2023-03-21T11:07:44;100786.19;;;11.54;100.00
18987;BME280;9627;59.236;18.142;2023-03-21T11:10:11;100788.75;;;11.26;100.00
18987;BME280;9627;59.236;18.142;2023-03-21T11:12:39;100783.25;;;11.28;100.00
18987;BME280;9627;59.236;18.142;2023-03-21T11:15:13;100784.41;;;10.89;100.00
18987;BME280;9627;59.236;18.142;2023-03-21T11:17:50;100776.16;;;10.03;100.00
18987;BME280;9627;59.236;18.142;2023-03-21T11:20:19;100786.06;;;11.62;100.00
18987;BME280;9627;59.236;18.142;2023-03-21T11:22:46;100780.22;;;10.80;100.00
18987;BME280;9627;59.236;18.142;2023-03-21T11:25:19;100774.34;;;10.99;100.00
18987;BME280;9627;59.236;18.142;2023-03-21T11:27:47;100774.97;;;10.43;100.00
18987;BME280;9627;59.236;18.142;2023-03-21T11:30:18;100774.41;;;9.96;100.00
18987;BME280;9627;59.236;18.142;2023-03-21T11:32:49;100776.41;;;9.26;100.00
18987;BME280;9627;59.236;18.142;2023-03-21T11:35:17;100766.59;;;9.80;100.00
18987;BME280;9627;59.236;18.142;2023-03-21T11:37:49;100766.38;;;10.04;100.00
18987;BME280;9627;59.236;18.142;2023-03-21T11:40:18;100768.94;;;9.75;100.00
18987;BME280;9627;59.236;18.142;2023-03-21T11:42:46;100764.56;;;9.06;100.00
18987;BME280;9627;59.236;18.142;2023-03-21T11:45:14;100762.72;;;10.05;100.00
18987;BME280;9627;59.236;18.142;2023-03-21T11:47:42;100757.69;;;10.62;100.00
18987;BME280;9627;59.236;18.142;2023-03-21T11:50:17;100769.22;;;10.83;100.00
18987;BME280;9627;59.236;18.142;2023-03-21T11:55:34;100756.13;;;9.10;100.00
18987;BME280;9627;59.236;18.142;2023-03-21T11:58:09;100753.56;;;9.48;100.00
18987;BME280;9627;59.236;18.142;2023-03-21T12:00:41;100751.78;;;9.40;100.00
18987;BME280;9627;59.236;18.142;2023-03-21T12:03:19;100758.53;;;9.73;100.00
18987;BME280;9627;59.236;18.142;2023-03-21T12:05:55;100750.56;;;9.73;100.00
18987;BME280;9627;59.236;18.142;2023-03-21T12:08:27;100742.16;;;9.70;100.00
18987;BME280;9627;59.236;18.142;2023-03-21T12:11:01;100741.84;;;10.39;100.00
18987;BME280;9627;59.236;18.142;2023-03-21T12:13:35;100742.59;;;10.77;100.00
18987;BME280;9627;59.236;18.142;2023-03-21T12:16:14;100754.75;;;11.36;100.00
18987;BME280;9627;59.236;18.142;2023-03-21T12:18:58;100751.41;;;10.98;100.00
18987;BME280;9627;59.236;18.142;2023-03-21T12:21:29;100755.22;;;11.82;100.00
18987;BME280;9627;59.236;18.142;2023-03-21T12:24:00;100747.94;;;9.88;100.00
18987;BME280;9627;59.236;18.142;2023-03-21T12:26:31;100742.28;;;10.13;100.00
18987;BME280;9627;59.236;18.142;2023-03-21T12:29:05;100745.84;;;10.20;100.00
18987;BME280;9627;59.236;18.142;2023-03-21T12:31:38;100753.50;;;9.02;100.00
18987;BME280;9627;59.236;18.142;2023-03-21T12:34:11;100739.94;;;9.05;100.00
18987;BME280;9627;59.236;18.142;2023-03-21T12:36:47;100734.19;;;9.24;100.00
18987;BME280;9627;59.236;18.142;2023-03-21T12:39:19;100735.00;;;9.93;100.00
18987;BME280;9627;59.236;18.142;2023-03-21T12:41:51;100741.50;;;9.68;100.00
18987;BME280;9627;59.236;18.142;2023-03-21T12:44:22;100734.84;;;9.49;100.00
18987;BME280;9627;59.236;18.142;2023-03-21T12:46:54;100733.00;;;9.95;100.00
18987;BME280;9627;59.236;18.142;2023-03-21T12:49:23;100736.47;;;9.73;100.00
18987;BME280;9627;59.236;18.142;2023-03-21T12:51:54;100724.72;;;9.07;100.00
18987;BME280;9627;59.236;18.142;2023-03-21T12:54:24;100729.72;;;8.64;100.00
18987;BME280;9627;59.236;18.142;2023-03-21T12:56:58;100724.09;;;8.97;100.00
18987;BME280;9627;59.236;18.142;2023-03-21T12:59:31;100731.81;;;8.76;100.00
18987;BME280;9627;59.236;18.142;2023-03-21T13:02:03;100731.06;;;8.52;100.00
18987;BME280;9627;59.236;18.142;2023-03-21T13:04:35;100739.34;;;8.87;100.00
18987;BME280;9627;59.236;18.142;2023-03-21T13:07:04;100734.91;;;9.18;100.00